• Join FlightAware (Why Join?)
  • Login
  • US Flag 
06:25AM EDT


 

Airport Tracker/Info


-or-


 

Live Flight TrackerFlight Track Log ✈ N744P ✈ 18-Apr-2013 ✈ KLGA - KDCA

Flight Track Log - Related Links

Times and Time Zones

All times are in EDT time to prevent confusion due to time zone crossing. See the N744P flight status page for this flight to view local times or setup timezone preferences in your user account.

Time Position Orientation Groundspeed Altitude Reporting Facility
EDT Latitude Longitude Course Direction KTS MPH feet Rate Location/Type
08:48PM 40.7667 -73.8500 217° Southwest 142 163 1,500  Level New York TRACON
08:49PM 40.7333 -73.8167 143° Southeast 186 214 3,100 1,860 Climbing New York TRACON
08:50PM 40.8000 -73.7667 30° Northeast 294 338 5,100 2,760 Climbing New York TRACON
08:51PM 40.8333 -73.8500 298° West 265 305 8,700 3,300 Climbing New York TRACON
08:52PM 40.5934 -74.3864 246° West  Level FlightAware Approximate
08:52PM 40.8333 -73.9333 270° West 265 305 11,700  Level New York TRACON
08:53PM 40.5497 -74.5178 246° West  Level FlightAware Approximate
08:53PM 40.8167 -74.0500 259° West 332 382 13,100  Level New York TRACON
08:54PM 40.5154 -74.6513 217° Southwest  Level FlightAware Approximate
08:54PM 40.7833 -74.1667 249° West 350 403 14,900  Level New York TRACON
08:55PM 40.7333 -74.2833 241° Southwest 394 453 15,600 660 Climbing New York TRACON
08:57PM 40.6364 -74.4931 239° Southwest 395 455 17,000 1,080 Climbing New York Center
08:58PM 40.5736 -74.6236 238° Southwest 384 442 19,000 1,860 Climbing New York Center
08:59PM 40.5161 -74.7239 233° Southwest 384 442 20,800 1,500 Climbing New York Center
09:00PM 40.4500 -74.8347 232° Southwest 394 453 22,000 600 Climbing New York Center
09:01PM 40.3789 -74.9614 234° Southwest 400 460 22,000  Level New York Center
09:02PM 40.3103 -75.0714 231° Southwest 400 460 22,000  Level New York Center
09:03PM 40.2458 -75.1817 233° Southwest 400 460 22,000  Level New York Center
09:04PM 40.1811 -75.2944 233° Southwest 400 460 22,000  Level New York Center
09:05PM 40.1122 -75.4039 231° Southwest 400 460 22,000  Level New York Center
09:06PM 40.0431 -75.5158 231° Southwest 400 460 22,000 -120 Level New York Center
09:07PM 39.9719 -75.6222 229° Southwest 400 460 21,800 -600 Descending New York Center
09:08PM 39.9050 -75.7283 231° Southwest 400 460 20,800 -1,020 Descending New York Center
09:09PM 39.8361 -75.8317 229° Southwest 394 453 19,800 -1,020 Descending New York Center
09:10PM 39.7758 -75.9219 229° Southwest 387 445 18,900 -1,020 Descending New York Center
09:12PM 39.6943 -76.0911 241° Southwest  Level FlightAware Approximate
09:13PM 39.5667 -76.2333 241° Southwest 358 412 15,900  Level Potomac TRACON
09:15PM 39.4500 -76.4167 231° Southwest 338 389 12,000 -1,500 Descending Potomac TRACON
09:16PM 39.3667 -76.4833 212° Southwest 326 375 11,400 -600 Descending Potomac TRACON
09:17PM 39.3000 -76.5500 218° Southwest 321 369 10,900 -480 Descending Potomac TRACON
09:19PM 39.1667 -76.6667 214° Southwest 265 305 10,000 -300 Descending Potomac TRACON
09:20PM 39.1000 -76.7333 218° Southwest 258 297 10,000 -300 Level Potomac TRACON
09:21PM 39.0500 -76.8000 226° Southwest 258 297 9,400 -1,200 Descending Potomac TRACON
09:22PM 39.0000 -76.8667 226° Southwest 252 290 7,600 -1,740 Descending Potomac TRACON
09:23PM 38.9667 -76.9333 237° Southwest 259 298 6,000 -840 Descending Potomac TRACON
09:25PM 39.0167 -77.0667 296° West 214 246 5,100 -540 Descending Potomac TRACON
09:26PM 39.0500 -77.1167 311° West 215 247 4,400 -720 Descending Potomac TRACON
09:28PM 39.0333 -77.2167 258° West 164 189 3,000 -480 Descending Potomac TRACON
09:29PM 39.0000 -77.1833 142° Southeast 160 184 3,000 -240 Level Potomac TRACON
09:30PM 38.9667 -77.1500 142° Southeast 169 194 2,600 -420 Descending Potomac TRACON